Terminal Aerodrome Forecast
Issued by NWS Duluth, MN

Home | Current Version | Previous Version | Text Only | Print | Product List | Glossary On
Versions: 1 2 3 4 5 6 7 8 9 10 11 12 13 14 15 16 17 18 19 20 21 22 23 24 25 26 27 28 29
000
FTUS43 KDLH 010600 AAA
TAFINL
TAF AMD
KINL 010610Z 0106/0206 20010G16KT 3SM -SN BKN024 OVC035
      TEMPO 0106/0108 1SM -SN BKN015
     FM010900 25005KT P6SM SCT035 BKN060
     FM011600 27010KT P6SM BKN035
     FM012300 29010KT P6SM SKC=

USA.gov is the U.S. government's official web portal to all federal, state and local government web resources and services.